sensor_id;sensor_type;location;lat;lon;timestamp;P1;durP1;ratioP1;P2;durP2;ratioP2
50757;SDS011;36732;47.980;11.652;2023-09-18T00:01:51;3.80;;;1.80;;
50757;SDS011;36732;47.980;11.652;2023-09-18T00:04:16;1.92;;;1.70;;
50757;SDS011;36732;47.980;11.652;2023-09-18T00:06:42;2.10;;;1.77;;
50757;SDS011;36732;47.980;11.652;2023-09-18T00:09:08;2.25;;;2.00;;
50757;SDS011;36732;47.980;11.652;2023-09-18T00:11:36;2.92;;;1.70;;
50757;SDS011;36732;47.980;11.652;2023-09-18T00:14:03;1.77;;;1.50;;
50757;SDS011;36732;47.980;11.652;2023-09-18T00:16:29;2.75;;;1.67;;
50757;SDS011;36732;47.980;11.652;2023-09-18T00:18:56;3.17;;;1.80;;
50757;SDS011;36732;47.980;11.652;2023-09-18T00:21:22;1.90;;;1.73;;
50757;SDS011;36732;47.980;11.652;2023-09-18T00:23:50;2.60;;;2.40;;
50757;SDS011;36732;47.980;11.652;2023-09-18T00:26:17;3.00;;;1.95;;
50757;SDS011;36732;47.980;11.652;2023-09-18T00:28:42;2.10;;;1.85;;
50757;SDS011;36732;47.980;11.652;2023-09-18T00:31:08;2.83;;;1.40;;
50757;SDS011;36732;47.980;11.652;2023-09-18T00:33:34;2.38;;;1.88;;
50757;SDS011;36732;47.980;11.652;2023-09-18T00:36:00;2.08;;;1.75;;
50757;SDS011;36732;47.980;11.652;2023-09-18T00:38:26;5.25;;;1.70;;
50757;SDS011;36732;47.980;11.652;2023-09-18T00:40:52;4.03;;;1.88;;
50757;SDS011;36732;47.980;11.652;2023-09-18T00:43:17;2.25;;;1.45;;
50757;SDS011;36732;47.980;11.652;2023-09-18T00:45:44;1.63;;;1.40;;
50757;SDS011;36732;47.980;11.652;2023-09-18T00:48:11;2.15;;;1.58;;
50757;SDS011;36732;47.980;11.652;2023-09-18T00:50:39;2.33;;;1.40;;
50757;SDS011;36732;47.980;11.652;2023-09-18T00:53:07;4.30;;;1.80;;
50757;SDS011;36732;47.980;11.652;2023-09-18T00:55:34;2.30;;;1.58;;
50757;SDS011;36732;47.980;11.652;2023-09-18T00:58:02;2.22;;;1.70;;
50757;SDS011;36732;47.980;11.652;2023-09-18T01:00:29;1.60;;;1.35;;
50757;SDS011;36732;47.980;11.652;2023-09-18T01:02:55;2.20;;;1.83;;
50757;SDS011;36732;47.980;11.652;2023-09-18T01:05:21;2.28;;;1.60;;
50757;SDS011;36732;47.980;11.652;2023-09-18T01:07:49;2.47;;;1.60;;
50757;SDS011;36732;47.980;11.652;2023-09-18T01:10:15;2.53;;;1.70;;
50757;SDS011;36732;47.980;11.652;2023-09-18T01:15:40;4.13;;;1.60;;
50757;SDS011;36732;47.980;11.652;2023-09-18T01:18:20;2.63;;;1.45;;
50757;SDS011;36732;47.980;11.652;2023-09-18T01:20:46;1.80;;;1.60;;
50757;SDS011;36732;47.980;11.652;2023-09-18T01:23:12;1.60;;;1.50;;
50757;SDS011;36732;47.980;11.652;2023-09-18T01:25:37;2.67;;;1.75;;
50757;SDS011;36732;47.980;11.652;2023-09-18T01:28:03;2.22;;;1.45;;
50757;SDS011;36732;47.980;11.652;2023-09-18T01:30:29;3.83;;;1.58;;
50757;SDS011;36732;47.980;11.652;2023-09-18T01:32:58;1.83;;;1.50;;
50757;SDS011;36732;47.980;11.652;2023-09-18T01:35:25;2.90;;;1.60;;
50757;SDS011;36732;47.980;11.652;2023-09-18T01:37:58;2.45;;;1.60;;
50757;SDS011;36732;47.980;11.652;2023-09-18T01:40:25;3.05;;;1.70;;
50757;SDS011;36732;47.980;11.652;2023-09-18T01:42:51;2.17;;;1.50;;
50757;SDS011;36732;47.980;11.652;2023-09-18T01:45:18;2.67;;;1.20;;
50757;SDS011;36732;47.980;11.652;2023-09-18T01:47:44;1.58;;;1.48;;
50757;SDS011;36732;47.980;11.652;2023-09-18T01:50:11;4.75;;;1.85;;
50757;SDS011;36732;47.980;11.652;2023-09-18T01:52:38;1.48;;;1.35;;
50757;SDS011;36732;47.980;11.652;2023-09-18T01:55:03;2.50;;;1.60;;
50757;SDS011;36732;47.980;11.652;2023-09-18T01:57:30;3.92;;;1.70;;
50757;SDS011;36732;47.980;11.652;2023-09-18T01:59:55;1.65;;;1.55;;
50757;SDS011;36732;47.980;11.652;2023-09-18T02:02:21;2.13;;;1.80;;
50757;SDS011;36732;47.980;11.652;2023-09-18T02:04:47;2.35;;;1.50;;
50757;SDS011;36732;47.980;11.652;2023-09-18T02:07:13;1.98;;;1.75;;
50757;SDS011;36732;47.980;11.652;2023-09-18T02:09:39;1.92;;;1.40;;
50757;SDS011;36732;47.980;11.652;2023-09-18T02:12:04;1.98;;;1.42;;
50757;SDS011;36732;47.980;11.652;2023-09-18T02:14:31;2.67;;;1.40;;
50757;SDS011;36732;47.980;11.652;2023-09-18T02:16:57;2.00;;;1.67;;
50757;SDS011;36732;47.980;11.652;2023-09-18T02:19:22;1.88;;;1.50;;
50757;SDS011;36732;47.980;11.652;2023-09-18T02:21:48;1.73;;;1.33;;
50757;SDS011;36732;47.980;11.652;2023-09-18T02:24:14;3.95;;;1.83;;
50757;SDS011;36732;47.980;11.652;2023-09-18T02:26:40;1.88;;;1.50;;
50757;SDS011;36732;47.980;11.652;2023-09-18T02:29:07;3.25;;;1.80;;
50757;SDS011;36732;47.980;11.652;2023-09-18T02:31:38;1.55;;;1.23;;
50757;SDS011;36732;47.980;11.652;2023-09-18T02:34:04;3.00;;;1.77;;
50757;SDS011;36732;47.980;11.652;2023-09-18T02:36:32;4.32;;;1.50;;
50757;SDS011;36732;47.980;11.652;2023-09-18T02:38:58;4.90;;;1.65;;
50757;SDS011;36732;47.980;11.652;2023-09-18T02:41:24;4.30;;;1.88;;
50757;SDS011;36732;47.980;11.652;2023-09-18T02:43:49;2.65;;;1.83;;
50757;SDS011;36732;47.980;11.652;2023-09-18T02:46:15;3.45;;;1.73;;
50757;SDS011;36732;47.980;11.652;2023-09-18T02:48:41;2.33;;;1.50;;
50757;SDS011;36732;47.980;11.652;2023-09-18T02:51:07;2.10;;;1.60;;
50757;SDS011;36732;47.980;11.652;2023-09-18T02:53:33;2.22;;;1.30;;
50757;SDS011;36732;47.980;11.652;2023-09-18T02:55:59;3.15;;;2.05;;
50757;SDS011;36732;47.980;11.652;2023-09-18T02:58:25;3.42;;;1.95;;
50757;SDS011;36732;47.980;11.652;2023-09-18T03:00:53;2.00;;;1.58;;
50757;SDS011;36732;47.980;11.652;2023-09-18T03:03:24;2.90;;;1.55;;
50757;SDS011;36732;47.980;11.652;2023-09-18T03:05:50;1.70;;;1.60;;
50757;SDS011;36732;47.980;11.652;2023-09-18T03:08:16;3.17;;;1.77;;
50757;SDS011;36732;47.980;11.652;2023-09-18T03:10:42;1.95;;;1.77;;
50757;SDS011;36732;47.980;11.652;2023-09-18T03:13:10;3.20;;;1.55;;
50757;SDS011;36732;47.980;11.652;2023-09-18T03:15:37;3.08;;;1.58;;
50757;SDS011;36732;47.980;11.652;2023-09-18T03:18:04;3.72;;;1.67;;
50757;SDS011;36732;47.980;11.652;2023-09-18T03:20:32;2.22;;;1.48;;
50757;SDS011;36732;47.980;11.652;2023-09-18T03:22:58;1.90;;;1.70;;
50757;SDS011;36732;47.980;11.652;2023-09-18T03:25:26;2.25;;;1.60;;
50757;SDS011;36732;47.980;11.652;2023-09-18T03:27:53;2.83;;;1.80;;
50757;SDS011;36732;47.980;11.652;2023-09-18T03:30:21;1.70;;;1.52;;
50757;SDS011;36732;47.980;11.652;2023-09-18T03:32:51;1.67;;;1.55;;
50757;SDS011;36732;47.980;11.652;2023-09-18T03:35:18;4.93;;;1.80;;
50757;SDS011;36732;47.980;11.652;2023-09-18T03:37:45;2.67;;;1.58;;
50757;SDS011;36732;47.980;11.652;2023-09-18T03:40:15;4.65;;;2.13;;
50757;SDS011;36732;47.980;11.652;2023-09-18T03:42:43;2.40;;;1.83;;
50757;SDS011;36732;47.980;11.652;2023-09-18T03:45:09;2.55;;;1.98;;
50757;SDS011;36732;47.980;11.652;2023-09-18T03:47:35;2.28;;;1.70;;
50757;SDS011;36732;47.980;11.652;2023-09-18T03:50:03;3.95;;;1.85;;
50757;SDS011;36732;47.980;11.652;2023-09-18T03:52:29;3.10;;;1.60;;
50757;SDS011;36732;47.980;11.652;2023-09-18T03:54:54;3.38;;;2.15;;
50757;SDS011;36732;47.980;11.652;2023-09-18T03:57:20;3.83;;;1.60;;
50757;SDS011;36732;47.980;11.652;2023-09-18T03:59:46;2.78;;;1.50;;
50757;SDS011;36732;47.980;11.652;2023-09-18T04:02:12;3.30;;;1.60;;
50757;SDS011;36732;47.980;11.652;2023-09-18T04:04:37;2.95;;;1.45;;
50757;SDS011;36732;47.980;11.652;2023-09-18T04:07:06;2.50;;;1.80;;
50757;SDS011;36732;47.980;11.652;2023-09-18T04:09:33;3.35;;;1.77;;
50757;SDS011;36732;47.980;11.652;2023-09-18T04:12:01;4.60;;;1.63;;
50757;SDS011;36732;47.980;11.652;2023-09-18T04:14:30;4.55;;;1.75;;
50757;SDS011;36732;47.980;11.652;2023-09-18T04:16:56;2.67;;;1.80;;
50757;SDS011;36732;47.980;11.652;2023-09-18T04:19:21;1.92;;;1.52;;
50757;SDS011;36732;47.980;11.652;2023-09-18T04:21:47;3.25;;;1.92;;
50757;SDS011;36732;47.980;11.652;2023-09-18T04:24:13;3.90;;;1.92;;
50757;SDS011;36732;47.980;11.652;2023-09-18T04:26:39;5.00;;;2.20;;
50757;SDS011;36732;47.980;11.652;2023-09-18T04:29:05;2.03;;;1.33;;
50757;SDS011;36732;47.980;11.652;2023-09-18T04:31:31;7.72;;;2.10;;
50757;SDS011;36732;47.980;11.652;2023-09-18T04:33:57;5.35;;;1.88;;
50757;SDS011;36732;47.980;11.652;2023-09-18T04:36:24;7.10;;;1.90;;
50757;SDS011;36732;47.980;11.652;2023-09-18T04:38:50;4.00;;;1.65;;
50757;SDS011;36732;47.980;11.652;2023-09-18T04:41:16;2.75;;;1.40;;
50757;SDS011;36732;47.980;11.652;2023-09-18T04:43:41;3.50;;;1.60;;
50757;SDS011;36732;47.980;11.652;2023-09-18T04:46:10;6.13;;;1.55;;
50757;SDS011;36732;47.980;11.652;2023-09-18T04:48:36;6.88;;;1.80;;
50757;SDS011;36732;47.980;11.652;2023-09-18T04:51:02;3.88;;;1.80;;
50757;SDS011;36732;47.980;11.652;2023-09-18T04:53:28;2.42;;;1.30;;
50757;SDS011;36732;47.980;11.652;2023-09-18T04:55:56;5.00;;;2.15;;
50757;SDS011;36732;47.980;11.652;2023-09-18T04:58:22;5.15;;;1.67;;
50757;SDS011;36732;47.980;11.652;2023-09-18T05:00:57;4.57;;;2.30;;
50757;SDS011;36732;47.980;11.652;2023-09-18T05:03:25;3.05;;;1.65;;
50757;SDS011;36732;47.980;11.652;2023-09-18T05:05:54;3.88;;;1.80;;
50757;SDS011;36732;47.980;11.652;2023-09-18T05:08:20;5.32;;;1.75;;
50757;SDS011;36732;47.980;11.652;2023-09-18T05:10:46;2.78;;;1.58;;
50757;SDS011;36732;47.980;11.652;2023-09-18T05:13:12;2.50;;;1.77;;
50757;SDS011;36732;47.980;11.652;2023-09-18T05:15:38;4.40;;;2.00;;
50757;SDS011;36732;47.980;11.652;2023-09-18T05:18:04;4.00;;;2.03;;
50757;SDS011;36732;47.980;11.652;2023-09-18T05:20:30;5.72;;;1.98;;
50757;SDS011;36732;47.980;11.652;2023-09-18T05:22:57;4.53;;;1.75;;
50757;SDS011;36732;47.980;11.652;2023-09-18T05:25:26;3.53;;;1.98;;
50757;SDS011;36732;47.980;11.652;2023-09-18T05:27:54;3.47;;;1.98;;
50757;SDS011;36732;47.980;11.652;2023-09-18T05:30:26;4.82;;;1.92;;
50757;SDS011;36732;47.980;11.652;2023-09-18T05:32:56;4.97;;;1.90;;
50757;SDS011;36732;47.980;11.652;2023-09-18T05:35:22;9.15;;;2.63;;
50757;SDS011;36732;47.980;11.652;2023-09-18T05:37:49;4.80;;;1.90;;
50757;SDS011;36732;47.980;11.652;2023-09-18T05:40:19;5.10;;;2.00;;
50757;SDS011;36732;47.980;11.652;2023-09-18T05:42:45;4.25;;;1.67;;
50757;SDS011;36732;47.980;11.652;2023-09-18T05:45:11;3.53;;;1.85;;
50757;SDS011;36732;47.980;11.652;2023-09-18T05:47:39;4.20;;;2.10;;
50757;SDS011;36732;47.980;11.652;2023-09-18T05:50:08;3.33;;;1.90;;
50757;SDS011;36732;47.980;11.652;2023-09-18T05:52:39;4.45;;;1.92;;
50757;SDS011;36732;47.980;11.652;2023-09-18T05:55:05;4.55;;;1.85;;
50757;SDS011;36732;47.980;11.652;2023-09-18T05:57:34;4.18;;;1.90;;
50757;SDS011;36732;47.980;11.652;2023-09-18T06:00:00;4.75;;;1.80;;
50757;SDS011;36732;47.980;11.652;2023-09-18T06:02:26;6.90;;;1.98;;
50757;SDS011;36732;47.980;11.652;2023-09-18T06:04:55;6.75;;;1.75;;
50757;SDS011;36732;47.980;11.652;2023-09-18T06:07:24;6.30;;;2.10;;
50757;SDS011;36732;47.980;11.652;2023-09-18T06:09:49;7.25;;;2.20;;
50757;SDS011;36732;47.980;11.652;2023-09-18T06:12:15;7.80;;;2.50;;
50757;SDS011;36732;47.980;11.652;2023-09-18T06:14:41;6.05;;;2.50;;
50757;SDS011;36732;47.980;11.652;2023-09-18T06:17:07;8.30;;;2.35;;
50757;SDS011;36732;47.980;11.652;2023-09-18T06:19:34;5.90;;;1.92;;
50757;SDS011;36732;47.980;11.652;2023-09-18T06:22:00;3.40;;;1.65;;
50757;SDS011;36732;47.980;11.652;2023-09-18T06:24:26;7.03;;;1.90;;
50757;SDS011;36732;47.980;11.652;2023-09-18T06:26:52;5.05;;;2.13;;
50757;SDS011;36732;47.980;11.652;2023-09-18T06:29:18;2.70;;;2.20;;
50757;SDS011;36732;47.980;11.652;2023-09-18T06:31:44;4.72;;;2.08;;
50757;SDS011;36732;47.980;11.652;2023-09-18T06:34:10;4.35;;;2.33;;
50757;SDS011;36732;47.980;11.652;2023-09-18T06:36:35;5.50;;;2.35;;
50757;SDS011;36732;47.980;11.652;2023-09-18T06:39:02;3.45;;;2.03;;
50757;SDS011;36732;47.980;11.652;2023-09-18T06:41:28;8.88;;;2.70;;
50757;SDS011;36732;47.980;11.652;2023-09-18T06:43:54;7.05;;;2.67;;
50757;SDS011;36732;47.980;11.652;2023-09-18T06:46:20;8.75;;;2.63;;
50757;SDS011;36732;47.980;11.652;2023-09-18T06:48:45;4.75;;;2.50;;
50757;SDS011;36732;47.980;11.652;2023-09-18T06:51:14;7.22;;;2.00;;
50757;SDS011;36732;47.980;11.652;2023-09-18T06:53:41;4.97;;;2.28;;
50757;SDS011;36732;47.980;11.652;2023-09-18T06:56:08;4.13;;;2.20;;
50757;SDS011;36732;47.980;11.652;2023-09-18T06:58:34;6.30;;;2.15;;
50757;SDS011;36732;47.980;11.652;2023-09-18T07:01:00;7.38;;;2.53;;
50757;SDS011;36732;47.980;11.652;2023-09-18T07:03:26;10.52;;;3.03;;
50757;SDS011;36732;47.980;11.652;2023-09-18T07:05:52;9.57;;;2.67;;
50757;SDS011;36732;47.980;11.652;2023-09-18T07:08:18;5.35;;;2.45;;
50757;SDS011;36732;47.980;11.652;2023-09-18T07:10:44;8.25;;;3.00;;
50757;SDS011;36732;47.980;11.652;2023-09-18T07:13:10;9.07;;;3.10;;
50757;SDS011;36732;47.980;11.652;2023-09-18T07:15:38;5.13;;;2.75;;
50757;SDS011;36732;47.980;11.652;2023-09-18T07:18:04;9.90;;;3.28;;
50757;SDS011;36732;47.980;11.652;2023-09-18T07:20:30;7.20;;;2.92;;
50757;SDS011;36732;47.980;11.652;2023-09-18T07:22:56;7.82;;;2.55;;
50757;SDS011;36732;47.980;11.652;2023-09-18T07:25:21;5.50;;;2.40;;
50757;SDS011;36732;47.980;11.652;2023-09-18T07:27:47;4.72;;;2.40;;
50757;SDS011;36732;47.980;11.652;2023-09-18T07:30:13;5.30;;;2.10;;
50757;SDS011;36732;47.980;11.652;2023-09-18T07:32:44;11.75;;;2.55;;
50757;SDS011;36732;47.980;11.652;2023-09-18T07:35:11;6.88;;;2.83;;
50757;SDS011;36732;47.980;11.652;2023-09-18T07:37:38;6.45;;;2.47;;
50757;SDS011;36732;47.980;11.652;2023-09-18T07:40:06;10.25;;;2.63;;
50757;SDS011;36732;47.980;11.652;2023-09-18T07:42:33;7.28;;;2.60;;
50757;SDS011;36732;47.980;11.652;2023-09-18T07:44:59;10.60;;;2.75;;
50757;SDS011;36732;47.980;11.652;2023-09-18T07:47:25;6.10;;;2.28;;
50757;SDS011;36732;47.980;11.652;2023-09-18T07:49:50;10.75;;;2.10;;
50757;SDS011;36732;47.980;11.652;2023-09-18T07:52:17;6.82;;;2.00;;
50757;SDS011;36732;47.980;11.652;2023-09-18T07:54:43;7.25;;;2.47;;
50757;SDS011;36732;47.980;11.652;2023-09-18T07:57:09;9.60;;;3.15;;
50757;SDS011;36732;47.980;11.652;2023-09-18T07:59:38;6.60;;;2.25;;
50757;SDS011;36732;47.980;11.652;2023-09-18T08:02:07;3.80;;;1.80;;
50757;SDS011;36732;47.980;11.652;2023-09-18T08:04:34;5.05;;;1.70;;
50757;SDS011;36732;47.980;11.652;2023-09-18T08:07:00;7.47;;;2.40;;
50757;SDS011;36732;47.980;11.652;2023-09-18T08:09:26;7.22;;;2.30;;
50757;SDS011;36732;47.980;11.652;2023-09-18T08:11:54;4.25;;;1.88;;
50757;SDS011;36732;47.980;11.652;2023-09-18T08:14:20;10.27;;;2.58;;
50757;SDS011;36732;47.980;11.652;2023-09-18T08:16:47;7.60;;;2.38;;
50757;SDS011;36732;47.980;11.652;2023-09-18T08:19:16;6.22;;;2.05;;
50757;SDS011;36732;47.980;11.652;2023-09-18T08:21:42;5.57;;;2.20;;
50757;SDS011;36732;47.980;11.652;2023-09-18T08:24:08;8.45;;;2.08;;
50757;SDS011;36732;47.980;11.652;2023-09-18T08:26:33;3.58;;;1.73;;
50757;SDS011;36732;47.980;11.652;2023-09-18T08:28:59;6.63;;;2.47;;
50757;SDS011;36732;47.980;11.652;2023-09-18T08:31:25;7.70;;;1.73;;
50757;SDS011;36732;47.980;11.652;2023-09-18T08:33:52;5.47;;;1.90;;
50757;SDS011;36732;47.980;11.652;2023-09-18T08:36:18;7.70;;;1.88;;
50757;SDS011;36732;47.980;11.652;2023-09-18T08:38:44;4.18;;;2.10;;
50757;SDS011;36732;47.980;11.652;2023-09-18T08:41:11;5.65;;;1.70;;
50757;SDS011;36732;47.980;11.652;2023-09-18T08:43:39;7.32;;;2.20;;
50757;SDS011;36732;47.980;11.652;2023-09-18T08:46:08;3.90;;;1.55;;
50757;SDS011;36732;47.980;11.652;2023-09-18T08:48:34;8.82;;;1.75;;
50757;SDS011;36732;47.980;11.652;2023-09-18T08:51:02;4.88;;;2.05;;
50757;SDS011;36732;47.980;11.652;2023-09-18T08:53:33;7.00;;;2.30;;
50757;SDS011;36732;47.980;11.652;2023-09-18T08:56:01;6.22;;;1.75;;
50757;SDS011;36732;47.980;11.652;2023-09-18T08:58:36;7.13;;;2.40;;
50757;SDS011;36732;47.980;11.652;2023-09-18T09:01:05;5.18;;;1.63;;
50757;SDS011;36732;47.980;11.652;2023-09-18T09:03:34;4.82;;;1.65;;
50757;SDS011;36732;47.980;11.652;2023-09-18T09:06:08;3.47;;;1.55;;
50757;SDS011;36732;47.980;11.652;2023-09-18T09:08:35;5.82;;;1.80;;
50757;SDS011;36732;47.980;11.652;2023-09-18T09:11:01;5.18;;;1.70;;
50757;SDS011;36732;47.980;11.652;2023-09-18T09:13:28;6.55;;;1.83;;
50757;SDS011;36732;47.980;11.652;2023-09-18T09:15:55;4.53;;;2.08;;
50757;SDS011;36732;47.980;11.652;2023-09-18T09:18:23;7.88;;;1.77;;
50757;SDS011;36732;47.980;11.652;2023-09-18T09:20:54;5.22;;;2.05;;
50757;SDS011;36732;47.980;11.652;2023-09-18T09:23:23;5.47;;;1.90;;
50757;SDS011;36732;47.980;11.652;2023-09-18T09:25:53;4.13;;;2.00;;
50757;SDS011;36732;47.980;11.652;2023-09-18T09:28:29;6.33;;;1.90;;
50757;SDS011;36732;47.980;11.652;2023-09-18T09:31:02;4.90;;;1.98;;
50757;SDS011;36732;47.980;11.652;2023-09-18T09:33:28;5.90;;;1.53;;
50757;SDS011;36732;47.980;11.652;2023-09-18T09:35:55;3.40;;;1.77;;
50757;SDS011;36732;47.980;11.652;2023-09-18T09:38:22;4.65;;;2.10;;
50757;SDS011;36732;47.980;11.652;2023-09-18T09:40:58;6.70;;;1.80;;
50757;SDS011;36732;47.980;11.652;2023-09-18T09:45:58;4.03;;;2.00;;
50757;SDS011;36732;47.980;11.652;2023-09-18T09:48:25;6.43;;;1.90;;
50757;SDS011;36732;47.980;11.652;2023-09-18T09:50:51;2.70;;;1.60;;
50757;SDS011;36732;47.980;11.652;2023-09-18T09:56:13;4.03;;;1.95;;
50757;SDS011;36732;47.980;11.652;2023-09-18T09:58:44;6.60;;;1.98;;
50757;SDS011;36732;47.980;11.652;2023-09-18T10:01:24;4.63;;;2.03;;
50757;SDS011;36732;47.980;11.652;2023-09-18T10:03:52;6.63;;;2.00;;
50757;SDS011;36732;47.980;11.652;2023-09-18T10:06:20;4.43;;;2.17;;
50757;SDS011;36732;47.980;11.652;2023-09-18T10:08:46;6.15;;;2.00;;
50757;SDS011;36732;47.980;11.652;2023-09-18T10:11:13;5.07;;;1.58;;
50757;SDS011;36732;47.980;11.652;2023-09-18T10:13:48;4.45;;;1.98;;
50757;SDS011;36732;47.980;11.652;2023-09-18T10:22:12;7.10;;;2.10;;
50757;SDS011;36732;47.980;11.652;2023-09-18T10:24:41;7.57;;;2.15;;
50757;SDS011;36732;47.980;11.652;2023-09-18T10:27:12;4.32;;;2.08;;
50757;SDS011;36732;47.980;11.652;2023-09-18T10:29:39;6.45;;;2.35;;
50757;SDS011;36732;47.980;11.652;2023-09-18T10:32:07;5.60;;;2.10;;
50757;SDS011;36732;47.980;11.652;2023-09-18T10:34:33;5.18;;;2.00;;
50757;SDS011;36732;47.980;11.652;2023-09-18T10:37:01;6.90;;;2.00;;
50757;SDS011;36732;47.980;11.652;2023-09-18T10:39:32;6.60;;;2.20;;
50757;SDS011;36732;47.980;11.652;2023-09-18T10:42:01;4.30;;;1.92;;
50757;SDS011;36732;47.980;11.652;2023-09-18T10:44:28;5.07;;;1.77;;
50757;SDS011;36732;47.980;11.652;2023-09-18T10:46:58;5.00;;;1.70;;
50757;SDS011;36732;47.980;11.652;2023-09-18T10:49:28;9.00;;;2.30;;
50757;SDS011;36732;47.980;11.652;2023-09-18T10:51:55;5.85;;;2.30;;
50757;SDS011;36732;47.980;11.652;2023-09-18T10:54:22;4.93;;;1.65;;
50757;SDS011;36732;47.980;11.652;2023-09-18T10:56:50;5.72;;;2.03;;
50757;SDS011;36732;47.980;11.652;2023-09-18T10:59:17;4.03;;;1.65;;
50757;SDS011;36732;47.980;11.652;2023-09-18T11:01:43;4.32;;;1.95;;
50757;SDS011;36732;47.980;11.652;2023-09-18T11:04:09;5.53;;;2.13;;
50757;SDS011;36732;47.980;11.652;2023-09-18T11:09:20;5.82;;;2.13;;
50757;SDS011;36732;47.980;11.652;2023-09-18T11:11:46;4.57;;;1.85;;
50757;SDS011;36732;47.980;11.652;2023-09-18T11:14:20;5.63;;;1.80;;
50757;SDS011;36732;47.980;11.652;2023-09-18T11:16:46;7.57;;;1.90;;
50757;SDS011;36732;47.980;11.652;2023-09-18T11:19:17;6.13;;;1.67;;
50757;SDS011;36732;47.980;11.652;2023-09-18T11:21:45;3.75;;;1.90;;
50757;SDS011;36732;47.980;11.652;2023-09-18T11:24:20;4.28;;;2.05;;
50757;SDS011;36732;47.980;11.652;2023-09-18T11:26:48;6.82;;;1.70;;
50757;SDS011;36732;47.980;11.652;2023-09-18T11:29:16;9.25;;;2.10;;
50757;SDS011;36732;47.980;11.652;2023-09-18T11:31:47;7.45;;;1.65;;
50757;SDS011;36732;47.980;11.652;2023-09-18T11:36:59;8.93;;;1.90;;
50757;SDS011;36732;47.980;11.652;2023-09-18T11:39:32;4.38;;;1.67;;
50757;SDS011;36732;47.980;11.652;2023-09-18T11:42:06;3.83;;;1.67;;
50757;SDS011;36732;47.980;11.652;2023-09-18T11:44:35;6.22;;;1.88;;
50757;SDS011;36732;47.980;11.652;2023-09-18T11:47:06;5.55;;;1.90;;
50757;SDS011;36732;47.980;11.652;2023-09-18T11:49:37;5.65;;;1.70;;
50757;SDS011;36732;47.980;11.652;2023-09-18T11:52:07;5.35;;;1.88;;
50757;SDS011;36732;47.980;11.652;2023-09-18T11:54:35;4.07;;;1.60;;
50757;SDS011;36732;47.980;11.652;2023-09-18T11:57:03;4.63;;;1.50;;
50757;SDS011;36732;47.980;11.652;2023-09-18T11:59:33;3.38;;;1.20;;
50757;SDS011;36732;47.980;11.652;2023-09-18T12:02:03;6.63;;;1.98;;
50757;SDS011;36732;47.980;11.652;2023-09-18T12:04:31;4.60;;;1.40;;
50757;SDS011;36732;47.980;11.652;2023-09-18T12:06:58;2.15;;;1.08;;
50757;SDS011;36732;47.980;11.652;2023-09-18T12:09:28;4.20;;;1.48;;
50757;SDS011;36732;47.980;11.652;2023-09-18T12:12:01;1.13;;;0.98;;
50757;SDS011;36732;47.980;11.652;2023-09-18T12:14:33;5.10;;;0.77;;
50757;SDS011;36732;47.980;11.652;2023-09-18T12:17:00;4.47;;;1.23;;
50757;SDS011;36732;47.980;11.652;2023-09-18T12:19:30;4.57;;;0.85;;
50757;SDS011;36732;47.980;11.652;2023-09-18T12:21:56;1.25;;;0.80;;
50757;SDS011;36732;47.980;11.652;2023-09-18T12:24:22;4.00;;;0.90;;
50757;SDS011;36732;47.980;11.652;2023-09-18T12:26:50;2.15;;;1.02;;
50757;SDS011;36732;47.980;11.652;2023-09-18T12:29:17;2.70;;;0.50;;
50757;SDS011;36732;47.980;11.652;2023-09-18T12:31:44;1.90;;;0.70;;
50757;SDS011;36732;47.980;11.652;2023-09-18T12:34:17;8.15;;;1.05;;
50757;SDS011;36732;47.980;11.652;2023-09-18T12:36:44;1.55;;;0.70;;
50757;SDS011;36732;47.980;11.652;2023-09-18T12:39:12;1.33;;;0.93;;
50757;SDS011;36732;47.980;11.652;2023-09-18T12:41:45;3.83;;;0.82;;
50757;SDS011;36732;47.980;11.652;2023-09-18T12:44:12;2.58;;;0.52;;
50757;SDS011;36732;47.980;11.652;2023-09-18T12:46:41;2.55;;;0.90;;
50757;SDS011;36732;47.980;11.652;2023-09-18T12:49:17;1.20;;;0.55;;
50757;SDS011;36732;47.980;11.652;2023-09-18T12:52:08;1.30;;;0.70;;
50757;SDS011;36732;47.980;11.652;2023-09-18T12:54:44;4.30;;;0.60;;
50757;SDS011;36732;47.980;11.652;2023-09-18T12:57:11;1.08;;;0.57;;
50757;SDS011;36732;47.980;11.652;2023-09-18T12:59:41;0.70;;;0.50;;
50757;SDS011;36732;47.980;11.652;2023-09-18T13:02:06;2.00;;;0.50;;
50757;SDS011;36732;47.980;11.652;2023-09-18T13:04:36;2.25;;;0.90;;
50757;SDS011;36732;47.980;11.652;2023-09-18T13:07:09;3.33;;;0.60;;
50757;SDS011;36732;47.980;11.652;2023-09-18T13:09:37;4.30;;;0.75;;
50757;SDS011;36732;47.980;11.652;2023-09-18T13:12:04;1.55;;;0.50;;
50757;SDS011;36732;47.980;11.652;2023-09-18T13:14:56;0.57;;;0.50;;
50757;SDS011;36732;47.980;11.652;2023-09-18T13:17:44;1.15;;;0.52;;
50757;SDS011;36732;47.980;11.652;2023-09-18T13:20:11;2.28;;;0.88;;
50757;SDS011;36732;47.980;11.652;2023-09-18T13:22:53;1.85;;;0.70;;
50757;SDS011;36732;47.980;11.652;2023-09-18T13:25:24;2.15;;;0.80;;
50757;SDS011;36732;47.980;11.652;2023-09-18T13:27:54;1.08;;;0.57;;
50757;SDS011;36732;47.980;11.652;2023-09-18T13:30:21;0.90;;;0.60;;
50757;SDS011;36732;47.980;11.652;2023-09-18T13:32:48;1.98;;;0.90;;
50757;SDS011;36732;47.980;11.652;2023-09-18T13:35:15;0.82;;;0.50;;
50757;SDS011;36732;47.980;11.652;2023-09-18T13:37:42;1.00;;;0.55;;
50757;SDS011;36732;47.980;11.652;2023-09-18T13:40:09;0.98;;;0.50;;
50757;SDS011;36732;47.980;11.652;2023-09-18T13:42:39;2.20;;;0.75;;
50757;SDS011;36732;47.980;11.652;2023-09-18T13:45:05;0.80;;;0.60;;
50757;SDS011;36732;47.980;11.652;2023-09-18T13:47:33;0.98;;;0.60;;
50757;SDS011;36732;47.980;11.652;2023-09-18T13:50:00;1.90;;;0.60;;
50757;SDS011;36732;47.980;11.652;2023-09-18T13:52:29;5.30;;;0.90;;
50757;SDS011;36732;47.980;11.652;2023-09-18T13:54:56;1.20;;;0.60;;
50757;SDS011;36732;47.980;11.652;2023-09-18T13:57:22;2.08;;;0.63;;
50757;SDS011;36732;47.980;11.652;2023-09-18T13:59:49;0.95;;;0.77;;
50757;SDS011;36732;47.980;11.652;2023-09-18T14:02:16;3.30;;;0.60;;
50757;SDS011;36732;47.980;11.652;2023-09-18T14:04:43;1.33;;;0.60;;
50757;SDS011;36732;47.980;11.652;2023-09-18T14:07:10;1.98;;;0.50;;
50757;SDS011;36732;47.980;11.652;2023-09-18T14:09:37;0.77;;;0.60;;
50757;SDS011;36732;47.980;11.652;2023-09-18T14:12:04;0.85;;;0.50;;
50757;SDS011;36732;47.980;11.652;2023-09-18T14:14:32;3.03;;;0.70;;
50757;SDS011;36732;47.980;11.652;2023-09-18T14:16:58;0.88;;;0.50;;
50757;SDS011;36732;47.980;11.652;2023-09-18T14:19:24;1.73;;;0.77;;
50757;SDS011;36732;47.980;11.652;2023-09-18T14:21:50;2.08;;;0.68;;
50757;SDS011;36732;47.980;11.652;2023-09-18T14:24:17;1.40;;;0.45;;
50757;SDS011;36732;47.980;11.652;2023-09-18T14:26:47;3.30;;;0.65;;
50757;SDS011;36732;47.980;11.652;2023-09-18T14:29:13;0.90;;;0.32;;
50757;SDS011;36732;47.980;11.652;2023-09-18T14:31:40;1.98;;;0.50;;
50757;SDS011;36732;47.980;11.652;2023-09-18T14:34:06;1.88;;;0.60;;
50757;SDS011;36732;47.980;11.652;2023-09-18T14:36:33;1.20;;;0.55;;
50757;SDS011;36732;47.980;11.652;2023-09-18T14:39:00;1.45;;;0.40;;
50757;SDS011;36732;47.980;11.652;2023-09-18T14:41:28;1.65;;;0.50;;
50757;SDS011;36732;47.980;11.652;2023-09-18T14:43:54;0.30;;;0.30;;
50757;SDS011;36732;47.980;11.652;2023-09-18T14:46:22;0.93;;;0.50;;
50757;SDS011;36732;47.980;11.652;2023-09-18T14:48:48;0.40;;;0.40;;
50757;SDS011;36732;47.980;11.652;2023-09-18T14:51:14;3.83;;;0.50;;
50757;SDS011;36732;47.980;11.652;2023-09-18T14:53:39;0.73;;;0.38;;
50757;SDS011;36732;47.980;11.652;2023-09-18T14:56:05;1.52;;;0.45;;